• Join FlightAware (Why Join?)
  • Login
  • US Flag 
06:16PM EDT


 

Airport Tracker/Info


-or-


 

Live Flight TrackerFlight Track Log ✈ TAM3135 ✈ 22-Sep-2013 ✈ SBVT / VIX - SBSP / CGH

Flight Track Log - Related Links

Times and Time Zones

All times are in EDT time to prevent confusion due to time zone crossing. See the TAM3135 flight status page for this flight to view local times or setup timezone preferences in your user account.

Time Position Orientation Groundspeed Altitude Reporting Facility
EDT Latitude Longitude Course Direction KTS MPH feet Rate Location/Type
06:12PM -20.2590 -40.2890 90° East  Level FlightAware
06:15PM -20.2470 -40.2790 35° Northeast 145 167 600 300 Climbing FlightAware
06:15PM -20.2340 -40.2710 30° Northeast 160 184 1,300 1,500 Climbing FlightAware
06:16PM -20.2250 -40.2650 32° Northeast 174 200 1,600 1,380 Climbing FlightAware
06:16PM -20.2070 -40.2530 32° Northeast 205 236 2,200 1,680 Climbing FlightAware
06:16PM -20.1950 -40.2450 32° Northeast 229 264 2,700 1,740 Climbing FlightAware
06:16PM -20.1910 -40.2370 62° Northeast 235 270 2,900 2,220 Climbing FlightAware
06:17PM -20.1870 -40.2270 67° East 248 285 3,300 3,180 Climbing FlightAware
06:17PM -20.1960 -40.1960 107° East 261 300 4,600 3,180 Climbing FlightAware
06:17PM -20.2030 -40.1890 137° Southeast 263 303 5,000 3,480 Climbing FlightAware
06:17PM -20.2120 -40.1830 148° Southeast 262 302 5,600 4,560 Climbing FlightAware
06:17PM -20.2230 -40.1740 142° Southeast 255 293 6,300 3,960 Climbing FlightAware
06:18PM -20.2370 -40.1580 133° Southeast 254 292 7,200 2,700 Climbing FlightAware
06:18PM -20.2510 -40.1350 123° Southeast 264 304 8,100 2,700 Climbing FlightAware
06:18PM -20.2600 -40.1130 114° Southeast 267 307 9,000 2,580 Climbing FlightAware
06:19PM -20.2670 -40.0960 114° Southeast 269 310 9,500 2,760 Climbing FlightAware
06:19PM -20.2900 -40.0790 145° Southeast 270 311 10,500 3,000 Climbing FlightAware
06:19PM -20.3000 -40.0780 175° South 271 312 10,700 1,260 Climbing FlightAware
06:19PM -20.3300 -40.0850 192° South 291 335 11,200 1,140 Climbing FlightAware
06:20PM -20.3790 -40.0980 194° South 333 383 11,900 1,920 Climbing FlightAware
06:21PM -20.4470 -40.1170 195° South 346 398 13,700 1,920 Climbing FlightAware
06:21PM -20.5000 -40.1310 194° South 372 428 14,400 1,800 Climbing FlightAware
06:22PM -20.5550 -40.1510 199° South 379 436 15,800 2,820 Climbing FlightAware
06:22PM -20.5700 -40.1630 217° Southwest 376 433 16,300 3,120 Climbing FlightAware
06:22PM -20.5870 -40.1820 226° Southwest 374 430 16,900 1,680 Climbing FlightAware
06:23PM -20.6210 -40.2240 229° Southwest 383 441 17,700 2,100 Climbing FlightAware
06:23PM -20.6740 -40.2900 229° Southwest 382 440 19,500 2,220 Climbing FlightAware
06:24PM -20.7060 -40.3290 229° Southwest 387 445 20,300 1,680 Climbing FlightAware
06:25PM -20.7700 -40.4060 228° Southwest 397 457 21,800 1,800 Climbing FlightAware
06:25PM -20.7990 -40.4420 229° Southwest 401 461 22,500 1,680 Climbing FlightAware
06:26PM -20.8450 -40.4820 219° Southwest 407 468 23,400 1,620 Climbing FlightAware
06:26PM -20.9050 -40.5300 217° Southwest 412 474 24,500 1,440 Climbing FlightAware
06:27PM -20.9580 -40.5720 216° Southwest 421 484 25,200 1,380 Climbing FlightAware
06:27PM -21.0140 -40.6170 217° Southwest 426 490 26,100 1,440 Climbing FlightAware
06:28PM -21.0670 -40.6600 217° Southwest 431 496 26,900 1,380 Climbing FlightAware
06:29PM -21.1200 -40.7040 218° Southwest 436 502 27,800 1,320 Climbing FlightAware
06:29PM -21.1930 -40.7630 217° Southwest 443 510 28,700 1,500 Climbing FlightAware
06:30PM -21.2410 -40.8010 216° Southwest 443 510 29,600 1,500 Climbing FlightAware
06:31PM -21.3080 -40.8560 217° Southwest 443 510 30,500 1,260 Climbing FlightAware
06:31PM -21.3570 -40.8950 217° Southwest 449 517 31,100 1,560 Climbing FlightAware
06:32PM -21.4120 -40.9400 217° Southwest 441 507 32,200 1,380 Climbing FlightAware
06:32PM -21.4830 -40.9980 217° Southwest 443 510 33,000 1,560 Climbing FlightAware
06:33PM -21.6050 -41.0980 217° Southwest 441 507 34,600 1,800 Climbing FlightAware
06:34PM -21.6560 -41.1400 217° Southwest 438 504 35,300 1,260 Climbing FlightAware
06:34PM -21.7110 -41.1850 217° Southwest 433 498 36,000 420 Climbing FlightAware
06:35PM -21.8040 -41.2600 217° Southwest 430 495 36,000  Level FlightAware
06:36PM -21.8800 -41.3220 217° Southwest 430 495 36,000  Level FlightAware
06:37PM -21.9610 -41.3890 217° Southwest 429 494 36,000  Level FlightAware
06:38PM -22.0360 -41.4520 218° Southwest 430 495 36,000  Level FlightAware
06:38PM -22.0620 -41.4850 230° Southwest 428 493 36,000  Level FlightAware
06:39PM -22.1020 -41.5440 234° Southwest 428 493 36,000  Level FlightAware
06:39PM -22.1470 -41.6070 232° Southwest 429 494 36,000  Level FlightAware
06:40PM -22.1850 -41.6620 233° Southwest 428 493 36,000  Level FlightAware
06:40PM -22.2290 -41.7260 233° Southwest 430 495 36,000  Level FlightAware
06:41PM -22.2710 -41.7860 233° Southwest 431 496 36,000  Level FlightAware
06:42PM -22.3150 -41.8500 233° Southwest 431 496 36,000  Level FlightAware
06:42PM -22.3520 -41.9040 233° Southwest 431 496 36,000  Level FlightAware
06:43PM -22.3960 -41.9670 233° Southwest 432 497 36,000  Level FlightAware
06:43PM -22.4380 -42.0280 233° Southwest 431 496 36,000  Level FlightAware
06:44PM -22.4740 -42.0800 233° Southwest 430 495 36,000  Level FlightAware
06:44PM -22.5220 -42.1500 233° Southwest 431 496 36,000  Level FlightAware
06:45PM -22.5620 -42.2080 233° Southwest 432 497 36,000  Level FlightAware
06:46PM -22.6030 -42.2670 233° Southwest 432 497 36,000  Level FlightAware
06:46PM -22.6480 -42.3330 234° Southwest 434 499 36,000  Level FlightAware
06:47PM -22.6910 -42.3960 233° Southwest 433 498 36,000  Level FlightAware
06:47PM -22.7290 -42.4520 234° Southwest 432 497 36,000  Level FlightAware
06:48PM -22.7620 -42.5000 233° Southwest 432 497 36,000  Level FlightAware
06:48PM -22.8080 -42.5670 233° Southwest 431 496 36,000  Level FlightAware
06:49PM -22.8480 -42.6260 234° Southwest 430 495 36,000  Level FlightAware
06:49PM -22.8790 -42.6800 238° Southwest 427 491 36,000  Level FlightAware
06:50PM -22.8990 -42.7470 252° West 426 490 36,000  Level FlightAware
06:51PM -22.9200 -42.8170 252° West 425 489 36,000  Level FlightAware
06:51PM -22.9430 -42.8920 252° West 426 490 36,000  Level FlightAware
06:52PM -22.9590 -42.9460 252° West 426 490 36,000  Level FlightAware
06:52PM -22.9820 -43.0200 251° West 426 490 36,000  Level FlightAware
06:53PM -23.0030 -43.0930 253° West 426 490 36,000  Level FlightAware
06:53PM -23.0230 -43.1600 252° West 425 489 36,000  Level FlightAware
06:54PM -23.0460 -43.2340 251° West 425 489 36,000  Level FlightAware
06:55PM -23.0640 -43.2980 253° West 425 489 36,000  Level FlightAware
06:55PM -23.0860 -43.3700 252° West 424 488 36,000  Level FlightAware
06:56PM -23.1070 -43.4420 252° West 424 488 36,000  Level FlightAware
06:56PM -23.1310 -43.5200 251° West 424 488 36,000  Level FlightAware
06:57PM -23.1500 -43.5830 252° West 424 488 36,000  Level FlightAware
06:58PM -23.1720 -43.6590 253° West 425 489 36,000  Level FlightAware
06:58PM -23.1930 -43.7310 252° West 425 489 36,000  Level FlightAware
06:59PM -23.2120 -43.7950 252° West 425 489 36,000  Level FlightAware
06:59PM -23.2340 -43.8700 252° West 425 489 36,000  Level FlightAware
07:00PM -23.2530 -43.9330 252° West 424 488 36,000  Level FlightAware
07:00PM -23.2730 -44.0130 255° West 422 486 36,000  Level FlightAware
07:01PM -23.2750 -44.0970 268° West 422 486 36,000  Level FlightAware
07:02PM -23.2750 -44.1980 270° West 422 486 36,000  Level FlightAware
07:03PM -23.2800 -44.2770 266° West 420 483 36,000  Level FlightAware
07:03PM -23.2870 -44.3530 264° West 422 486 36,000  Level FlightAware
07:04PM -23.2970 -44.4290 262° West 424 488 36,000  Level FlightAware
07:04PM -23.3110 -44.4970 257° West 426 490 36,000  Level FlightAware
07:05PM -23.3260 -44.5680 257° West 426 490 36,000  Level FlightAware
07:05PM -23.3420 -44.6450 257° West 423 487 36,000  Level FlightAware
07:06PM -23.3570 -44.7210 258° West 422 486 36,000  Level FlightAware
07:07PM -23.3710 -44.7900 258° West 421 484 36,000  Level FlightAware
07:07PM -23.3840 -44.8550 258° West 423 487 36,000 -300 Level FlightAware
07:08PM -23.4010 -44.9370 257° West 430 495 35,700 -720 Descending FlightAware
07:08PM -23.4140 -45.0000 257° West 429 494 35,200 -1,020 Descending FlightAware
07:09PM -23.4300 -45.0730 257° West 429 494 34,600 -960 Descending FlightAware
07:09PM -23.4470 -45.1480 256° West 424 488 34,100 -1,020 Descending FlightAware
07:10PM -23.4640 -45.2290 257° West 422 486 33,400 -1,080 Descending FlightAware
07:11PM -23.4780 -45.3030 258° West 413 475 32,800 -900 Descending FlightAware
07:11PM -23.4860 -45.3440 258° West 405 466 32,600 -1,260 Descending FlightAware
07:11PM -23.4990 -45.3920 254° West 403 464 31,900 -1,860 Descending FlightAware
07:12PM -23.5290 -45.4440 238° Southwest 401 461 30,900 -2,160 Descending FlightAware
07:13PM -23.5620 -45.5030 239° Southwest 398 458 29,600 -2,340 Descending FlightAware
07:13PM -23.5960 -45.5640 239° Southwest 390 449 28,200 -2,340 Descending FlightAware
07:14PM -23.6290 -45.6230 239° Southwest 387 445 26,900 -2,220 Descending FlightAware
07:14PM -23.6570 -45.6740 239° Southwest 382 440 25,800 -2,220 Descending FlightAware
07:15PM -23.6900 -45.7340 239° Southwest 380 437 24,500 -2,160 Descending FlightAware
07:16PM -23.7260 -45.7980 238° Southwest 374 430 23,100 -2,460 Descending FlightAware
07:16PM -23.7510 -45.8570 245° Southwest 366 421 21,500 -2,640 Descending FlightAware
07:17PM -23.7640 -45.9210 257° West 362 417 20,100 -2,340 Descending FlightAware
07:17PM -23.7770 -45.9840 257° West 353 406 18,800 -1,980 Descending FlightAware
07:18PM -23.7890 -46.0430 257° West 343 395 17,800 -1,740 Descending FlightAware
07:19PM -23.8040 -46.1130 257° West 330 380 16,600 -1,680 Descending FlightAware
07:19PM -23.8160 -46.1670 256° West 321 369 15,700 -2,340 Descending FlightAware
07:20PM -23.8270 -46.2230 258° West 331 381 13,900 -2,880 Descending FlightAware
07:20PM -23.8400 -46.2830 257° West 344 396 12,400 -2,280 Descending FlightAware
07:21PM -23.8520 -46.3420 257° West 333 383 11,300 -1,440 Descending FlightAware
07:21PM -23.8640 -46.3990 257° West 308 354 10,700 -960 Descending FlightAware
07:22PM -23.8750 -46.4510 257° West 294 338 10,200 -660 Descending FlightAware
07:23PM -23.8840 -46.4940 257° West 268 308 10,000 -840 Descending FlightAware
07:23PM -23.8870 -46.5140 261° West 264 304 9,600 -1,260 Descending FlightAware
07:23PM -23.8850 -46.5270 280° West 258 297 9,300 -900 Descending FlightAware
07:23PM -23.8790 -46.5380 301° West 253 291 9,200 -720 Descending FlightAware
07:23PM -23.8730 -46.5440 318° Northwest 251 289 9,100 -600 Descending FlightAware
07:24PM -23.8620 -46.5550 318° Northwest 247 284 9,000 -240 Descending FlightAware
07:24PM -23.8450 -46.5720 318° Northwest 232 267 9,000  Level FlightAware
07:24PM -23.8290 -46.5890 316° Northwest 218 251 9,000  Level FlightAware
07:25PM -23.8060 -46.6080 323° Northwest 208 239 9,000  Level FlightAware
07:25PM -23.7930 -46.6170 328° Northwest 207 238 9,000  Level FlightAware
07:26PM -23.7710 -46.6320 328° Northwest 208 239 9,000  Level FlightAware
07:26PM -23.7530 -46.6440 329° Northwest 209 241 9,000 -240 Level FlightAware
07:26PM -23.7310 -46.6590 328° Northwest 209 241 8,800 -720 Descending FlightAware
07:27PM -23.7180 -46.6680 328° Northwest 206 237 8,500 -1,080 Descending FlightAware
07:27PM -23.6910 -46.6870 327° Northwest 209 241 8,000 -960 Descending FlightAware
07:27PM -23.6810 -46.6940 327° Northwest 210 242 7,800 -900 Descending FlightAware
07:28PM -23.6660 -46.7050 326° Northwest 212 244 7,500 -1,140 Descending FlightAware
07:28PM -23.6460 -46.7200 326° Northwest 213 245 7,000 -1,080 Descending FlightAware
07:28PM -23.6290 -46.7320 327° Northwest 212 244 6,700 -1,020 Descending FlightAware
07:29PM -23.6150 -46.7430 324° Northwest 213 245 6,400 -1,080 Descending FlightAware
07:29PM -23.5950 -46.7580 325° Northwest 213 245 6,000 -1,080 Descending FlightAware
07:30PM -23.5780 -46.7700 327° Northwest 213 245 5,600 -780 Descending FlightAware
07:30PM -23.5530 -46.7880 327° Northwest 216 249 5,400 -480 Descending FlightAware
07:30PM -23.5410 -46.7940 335° Northwest 217 250 5,300 -900 Descending FlightAware
07:31PM -23.5160 -46.7840 20° North 221 254 4,900 -1,020 Descending FlightAware
07:31PM -23.5110 -46.7790 43° Northeast 220 253 4,800 -840 Descending FlightAware
07:31PM -23.5070 -46.7710 61° Northeast 222 255 4,700 -1,200 Descending FlightAware
07:31PM -23.5060 -46.7650 80° East 222 255 4,600 -540 Descending FlightAware
07:31PM -23.5150 -46.7360 109° East 207 238 4,400 -300 Descending FlightAware
07:32PM -23.5250 -46.7270 140° Southeast 191 220 4,400 -180 Level FlightAware
07:32PM -23.5390 -46.7170 147° Southeast 174 200 4,300 -600 Descending FlightAware
07:32PM -23.5520 -46.7080 148° Southeast 164 189 4,000 -780 Descending FlightAware
07:33PM -23.5630 -46.7000 146° Southeast 145 167 3,800 -720 Descending FlightAware
07:33PM -23.5750 -46.6920 149° Southeast 140 161 3,500 -780 Descending FlightAware
07:33PM -23.5890 -46.6820 147° Southeast 130 150 3,200 -720 Descending FlightAware
07:34PM -23.6000 -46.6750 150° Southeast 131 151 3,000 -780 Descending FlightAware
07:34PM -23.6070 -46.6700 147° Southeast 133 153 2,800 -660 Descending FlightAware
07:35PM -23.6220 -46.6590 146° Southeast 134 154 2,500 -60 Descending FlightAware
07:35PM -23.6280 -46.6550 149° Southeast 134 154 180 Descending FlightAware
07:35PM -23.6200 -46.6420 56° Northeast 134 154 3,420 Level FlightAware
07:36PM -23.6320 -46.6540 222° Southwest 133 153 2,700 4,140 Climbing FlightAware
07:36PM -23.6310 -46.6550 318° Northwest 133 153 2,700 -300 Level FlightAware
07:36PM -23.6300 -46.6550 360° North 133 153 2,500 -240 Descending FlightAware
07:37PM -23.6290 -46.6560 318° Northwest 133 153 2,500  Level FlightAware
07:37PM -23.6280 -46.6570 318° Northwest 133 153 2,500  Level FlightAware
07:38PM -23.6270 -46.6570 360° North 134 154 -6,000 Descending FlightAware
07:38PM -23.6260 -46.6580 318° Northwest 134 154  Level FlightAware
07:39PM -23.6240 -46.6600 318° Northwest 134 154  Level FlightAware
07:40PM -23.6240 -46.6600 90° East 134 154  Level FlightAware
07:40PM -23.6230 -46.6460 86° East 134 154  Level FlightAware